sensor_id;sensor_type;location;lat;lon;timestamp;P1;durP1;ratioP1;P2;durP2;ratioP2
74168;SDS011;62523;53.336;83.690;2023-05-10T00:03:40;39.35;;;27.98;;
74168;SDS011;62523;53.336;83.690;2023-05-10T00:08:43;45.38;;;30.65;;
74168;SDS011;62523;53.336;83.690;2023-05-10T00:13:45;56.40;;;36.03;;
74168;SDS011;62523;53.336;83.690;2023-05-10T00:18:47;45.15;;;28.30;;
74168;SDS011;62523;53.336;83.690;2023-05-10T00:23:49;44.33;;;26.98;;
74168;SDS011;62523;53.336;83.690;2023-05-10T00:28:51;36.45;;;23.25;;
74168;SDS011;62523;53.336;83.690;2023-05-10T00:33:54;42.47;;;23.60;;
74168;SDS011;62523;53.336;83.690;2023-05-10T00:38:56;48.17;;;30.05;;
74168;SDS011;62523;53.336;83.690;2023-05-10T00:43:58;43.38;;;29.15;;
74168;SDS011;62523;53.336;83.690;2023-05-10T00:49:00;53.22;;;34.08;;
74168;SDS011;62523;53.336;83.690;2023-05-10T00:54:04;46.13;;;28.67;;
74168;SDS011;62523;53.336;83.690;2023-05-10T00:59:08;63.70;;;37.30;;
74168;SDS011;62523;53.336;83.690;2023-05-10T01:04:11;52.20;;;33.88;;
74168;SDS011;62523;53.336;83.690;2023-05-10T01:09:14;54.10;;;31.17;;
74168;SDS011;62523;53.336;83.690;2023-05-10T01:14:16;32.33;;;20.37;;
74168;SDS011;62523;53.336;83.690;2023-05-10T01:19:25;31.30;;;17.92;;
74168;SDS011;62523;53.336;83.690;2023-05-10T01:30:18;46.15;;;23.83;;
74168;SDS011;62523;53.336;83.690;2023-05-10T01:35:43;23.93;;;14.10;;
74168;SDS011;62523;53.336;83.690;2023-05-10T01:41:07;31.05;;;15.63;;
74168;SDS011;62523;53.336;83.690;2023-05-10T01:46:14;32.83;;;16.50;;
74168;SDS011;62523;53.336;83.690;2023-05-10T01:56:25;56.43;;;32.47;;
74168;SDS011;62523;53.336;83.690;2023-05-10T02:01:30;42.63;;;23.90;;
74168;SDS011;62523;53.336;83.690;2023-05-10T02:06:33;53.78;;;31.50;;
74168;SDS011;62523;53.336;83.690;2023-05-10T02:11:41;45.67;;;29.40;;
74168;SDS011;62523;53.336;83.690;2023-05-10T02:16:44;45.88;;;30.55;;
74168;SDS011;62523;53.336;83.690;2023-05-10T02:21:47;64.20;;;31.52;;
74168;SDS011;62523;53.336;83.690;2023-05-10T02:26:53;58.05;;;33.75;;
74168;SDS011;62523;53.336;83.690;2023-05-10T02:31:59;56.20;;;33.13;;
74168;SDS011;62523;53.336;83.690;2023-05-10T02:37:03;57.65;;;34.35;;
74168;SDS011;62523;53.336;83.690;2023-05-10T02:42:07;49.33;;;28.13;;
74168;SDS011;62523;53.336;83.690;2023-05-10T02:47:11;48.67;;;31.98;;
74168;SDS011;62523;53.336;83.690;2023-05-10T02:52:15;50.60;;;31.60;;
74168;SDS011;62523;53.336;83.690;2023-05-10T02:57:40;60.38;;;29.40;;
74168;SDS011;62523;53.336;83.690;2023-05-10T03:02:59;55.22;;;28.15;;
74168;SDS011;62523;53.336;83.690;2023-05-10T03:08:03;44.22;;;29.08;;
74168;SDS011;62523;53.336;83.690;2023-05-10T03:18:21;50.38;;;28.15;;
74168;SDS011;62523;53.336;83.690;2023-05-10T03:23:30;45.58;;;26.20;;
74168;SDS011;62523;53.336;83.690;2023-05-10T03:28:44;39.33;;;25.60;;
74168;SDS011;62523;53.336;83.690;2023-05-10T03:33:47;38.28;;;25.05;;
74168;SDS011;62523;53.336;83.690;2023-05-10T03:38:59;41.78;;;25.75;;
74168;SDS011;62523;53.336;83.690;2023-05-10T03:44:02;37.20;;;24.85;;
74168;SDS011;62523;53.336;83.690;2023-05-10T03:49:04;40.35;;;21.95;;
74168;SDS011;62523;53.336;83.690;2023-05-10T03:54:06;32.53;;;21.48;;
74168;SDS011;62523;53.336;83.690;2023-05-10T03:59:08;44.15;;;23.63;;
74168;SDS011;62523;53.336;83.690;2023-05-10T04:04:11;33.28;;;21.27;;
74168;SDS011;62523;53.336;83.690;2023-05-10T04:09:13;38.20;;;25.20;;
74168;SDS011;62523;53.336;83.690;2023-05-10T04:14:15;44.53;;;24.50;;
74168;SDS011;62523;53.336;83.690;2023-05-10T04:19:18;32.90;;;20.92;;
74168;SDS011;62523;53.336;83.690;2023-05-10T04:24:20;37.50;;;22.60;;
74168;SDS011;62523;53.336;83.690;2023-05-10T04:29:22;32.17;;;21.88;;
74168;SDS011;62523;53.336;83.690;2023-05-10T04:34:24;35.50;;;21.55;;
74168;SDS011;62523;53.336;83.690;2023-05-10T04:39:26;31.50;;;20.35;;
74168;SDS011;62523;53.336;83.690;2023-05-10T04:44:28;36.10;;;21.92;;
74168;SDS011;62523;53.336;83.690;2023-05-10T04:49:31;36.90;;;20.40;;
74168;SDS011;62523;53.336;83.690;2023-05-10T04:54:33;28.77;;;18.92;;
74168;SDS011;62523;53.336;83.690;2023-05-10T04:59:36;31.55;;;20.10;;
74168;SDS011;62523;53.336;83.690;2023-05-10T05:04:38;29.63;;;19.60;;
74168;SDS011;62523;53.336;83.690;2023-05-10T05:09:41;27.27;;;20.05;;
74168;SDS011;62523;53.336;83.690;2023-05-10T05:14:43;30.87;;;21.27;;
74168;SDS011;62523;53.336;83.690;2023-05-10T05:19:46;24.92;;;16.38;;
74168;SDS011;62523;53.336;83.690;2023-05-10T05:24:48;36.17;;;20.83;;
74168;SDS011;62523;53.336;83.690;2023-05-10T05:29:56;40.45;;;21.13;;
74168;SDS011;62523;53.336;83.690;2023-05-10T05:35:00;29.92;;;19.65;;
74168;SDS011;62523;53.336;83.690;2023-05-10T05:40:05;42.85;;;25.48;;
74168;SDS011;62523;53.336;83.690;2023-05-10T05:45:08;39.63;;;25.92;;
74168;SDS011;62523;53.336;83.690;2023-05-10T05:50:24;32.66;;;20.52;;
74168;SDS011;62523;53.336;83.690;2023-05-10T05:55:26;32.22;;;21.12;;
74168;SDS011;62523;53.336;83.690;2023-05-10T06:00:28;45.27;;;26.50;;
74168;SDS011;62523;53.336;83.690;2023-05-10T06:05:30;24.55;;;19.35;;
74168;SDS011;62523;53.336;83.690;2023-05-10T06:10:33;31.27;;;20.67;;
74168;SDS011;62523;53.336;83.690;2023-05-10T06:15:35;27.95;;;17.80;;
74168;SDS011;62523;53.336;83.690;2023-05-10T06:20:37;33.78;;;17.83;;
74168;SDS011;62523;53.336;83.690;2023-05-10T06:25:39;31.88;;;19.10;;
74168;SDS011;62523;53.336;83.690;2023-05-10T06:30:42;35.28;;;20.83;;
74168;SDS011;62523;53.336;83.690;2023-05-10T06:35:45;33.72;;;22.23;;
74168;SDS011;62523;53.336;83.690;2023-05-10T06:40:47;35.03;;;20.10;;
74168;SDS011;62523;53.336;83.690;2023-05-10T06:45:49;31.10;;;17.65;;
74168;SDS011;62523;53.336;83.690;2023-05-10T06:50:51;37.65;;;17.27;;
74168;SDS011;62523;53.336;83.690;2023-05-10T06:55:53;27.65;;;17.08;;
74168;SDS011;62523;53.336;83.690;2023-05-10T07:01:01;32.95;;;24.17;;
74168;SDS011;62523;53.336;83.690;2023-05-10T07:06:04;25.63;;;18.25;;
74168;SDS011;62523;53.336;83.690;2023-05-10T07:11:08;21.73;;;13.70;;
74168;SDS011;62523;53.336;83.690;2023-05-10T07:16:10;28.73;;;15.68;;
74168;SDS011;62523;53.336;83.690;2023-05-10T07:21:12;32.35;;;14.73;;
74168;SDS011;62523;53.336;83.690;2023-05-10T07:26:14;23.73;;;13.45;;
74168;SDS011;62523;53.336;83.690;2023-05-10T07:31:16;30.88;;;15.20;;
74168;SDS011;62523;53.336;83.690;2023-05-10T07:36:19;27.75;;;14.15;;
74168;SDS011;62523;53.336;83.690;2023-05-10T07:41:21;24.02;;;14.30;;
74168;SDS011;62523;53.336;83.690;2023-05-10T07:46:26;24.00;;;17.30;;
74168;SDS011;62523;53.336;83.690;2023-05-10T07:51:28;20.30;;;13.77;;
74168;SDS011;62523;53.336;83.690;2023-05-10T07:56:31;16.75;;;13.35;;
74168;SDS011;62523;53.336;83.690;2023-05-10T08:01:34;34.30;;;16.30;;
74168;SDS011;62523;53.336;83.690;2023-05-10T08:06:36;18.20;;;15.48;;
74168;SDS011;62523;53.336;83.690;2023-05-10T08:11:39;18.73;;;10.18;;
74168;SDS011;62523;53.336;83.690;2023-05-10T08:16:41;22.27;;;10.82;;
74168;SDS011;62523;53.336;83.690;2023-05-10T08:21:43;17.73;;;12.25;;
74168;SDS011;62523;53.336;83.690;2023-05-10T08:26:45;31.98;;;12.57;;
74168;SDS011;62523;53.336;83.690;2023-05-10T08:31:48;24.33;;;12.48;;
74168;SDS011;62523;53.336;83.690;2023-05-10T08:36:50;17.67;;;10.57;;
74168;SDS011;62523;53.336;83.690;2023-05-10T08:41:57;24.35;;;11.73;;
74168;SDS011;62523;53.336;83.690;2023-05-10T08:47:04;19.98;;;11.02;;
74168;SDS011;62523;53.336;83.690;2023-05-10T08:52:09;23.88;;;9.90;;
74168;SDS011;62523;53.336;83.690;2023-05-10T08:57:13;12.45;;;9.88;;
74168;SDS011;62523;53.336;83.690;2023-05-10T09:02:16;13.15;;;9.45;;
74168;SDS011;62523;53.336;83.690;2023-05-10T09:07:20;13.35;;;8.98;;
74168;SDS011;62523;53.336;83.690;2023-05-10T09:12:22;27.65;;;10.18;;
74168;SDS011;62523;53.336;83.690;2023-05-10T09:17:25;16.85;;;9.23;;
74168;SDS011;62523;53.336;83.690;2023-05-10T09:22:28;17.25;;;13.88;;
74168;SDS011;62523;53.336;83.690;2023-05-10T09:27:32;20.17;;;9.40;;
74168;SDS011;62523;53.336;83.690;2023-05-10T09:32:38;16.80;;;13.05;;
74168;SDS011;62523;53.336;83.690;2023-05-10T09:37:45;15.07;;;8.35;;
74168;SDS011;62523;53.336;83.690;2023-05-10T09:48:03;11.00;;;7.93;;
74168;SDS011;62523;53.336;83.690;2023-05-10T09:53:06;9.20;;;7.07;;
74168;SDS011;62523;53.336;83.690;2023-05-10T09:58:08;17.17;;;9.43;;
74168;SDS011;62523;53.336;83.690;2023-05-10T10:03:17;12.10;;;8.50;;
74168;SDS011;62523;53.336;83.690;2023-05-10T10:08:21;9.93;;;8.40;;
74168;SDS011;62523;53.336;83.690;2023-05-10T10:13:23;11.32;;;8.73;;
74168;SDS011;62523;53.336;83.690;2023-05-10T10:18:25;14.77;;;8.27;;
74168;SDS011;62523;53.336;83.690;2023-05-10T10:23:28;12.35;;;7.13;;
74168;SDS011;62523;53.336;83.690;2023-05-10T10:28:43;15.95;;;8.50;;
74168;SDS011;62523;53.336;83.690;2023-05-10T10:34:11;11.70;;;7.95;;
74168;SDS011;62523;53.336;83.690;2023-05-10T10:39:29;18.00;;;9.38;;
74168;SDS011;62523;53.336;83.690;2023-05-10T10:54:51;13.18;;;8.77;;
74168;SDS011;62523;53.336;83.690;2023-05-10T11:00:22;14.50;;;8.75;;
74168;SDS011;62523;53.336;83.690;2023-05-10T11:10:33;16.37;;;9.80;;
74168;SDS011;62523;53.336;83.690;2023-05-10T11:15:36;25.25;;;10.07;;
74168;SDS011;62523;53.336;83.690;2023-05-10T11:20:40;17.70;;;9.63;;
74168;SDS011;62523;53.336;83.690;2023-05-10T11:25:42;14.17;;;9.13;;
74168;SDS011;62523;53.336;83.690;2023-05-10T11:30:48;9.27;;;7.25;;
74168;SDS011;62523;53.336;83.690;2023-05-10T11:35:50;14.85;;;9.82;;
74168;SDS011;62523;53.336;83.690;2023-05-10T11:40:53;13.40;;;9.90;;
74168;SDS011;62523;53.336;83.690;2023-05-10T11:45:56;21.38;;;11.13;;
74168;SDS011;62523;53.336;83.690;2023-05-10T11:50:58;29.00;;;9.65;;
74168;SDS011;62523;53.336;83.690;2023-05-10T11:56:04;15.75;;;9.68;;
74168;SDS011;62523;53.336;83.690;2023-05-10T12:01:08;14.55;;;10.20;;
74168;SDS011;62523;53.336;83.690;2023-05-10T12:06:11;17.20;;;8.20;;
74168;SDS011;62523;53.336;83.690;2023-05-10T12:11:14;15.30;;;9.80;;
74168;SDS011;62523;53.336;83.690;2023-05-10T12:16:20;11.20;;;8.60;;
74168;SDS011;62523;53.336;83.690;2023-05-10T12:21:29;14.83;;;11.03;;
74168;SDS011;62523;53.336;83.690;2023-05-10T12:26:34;23.63;;;11.32;;
74168;SDS011;62523;53.336;83.690;2023-05-10T12:31:49;15.23;;;10.20;;
74168;SDS011;62523;53.336;83.690;2023-05-10T12:36:59;17.70;;;10.70;;
74168;SDS011;62523;53.336;83.690;2023-05-10T12:42:01;15.88;;;12.05;;
74168;SDS011;62523;53.336;83.690;2023-05-10T12:47:03;14.68;;;9.63;;
74168;SDS011;62523;53.336;83.690;2023-05-10T12:52:05;13.93;;;9.90;;
74168;SDS011;62523;53.336;83.690;2023-05-10T12:57:07;16.55;;;11.48;;
74168;SDS011;62523;53.336;83.690;2023-05-10T13:02:10;23.90;;;10.18;;
74168;SDS011;62523;53.336;83.690;2023-05-10T13:07:12;17.08;;;9.63;;
74168;SDS011;62523;53.336;83.690;2023-05-10T13:12:14;23.50;;;11.55;;
74168;SDS011;62523;53.336;83.690;2023-05-10T13:17:16;18.70;;;14.00;;
74168;SDS011;62523;53.336;83.690;2023-05-10T13:22:18;21.25;;;11.98;;
74168;SDS011;62523;53.336;83.690;2023-05-10T13:27:20;17.58;;;12.95;;
74168;SDS011;62523;53.336;83.690;2023-05-10T13:32:22;15.45;;;11.27;;
74168;SDS011;62523;53.336;83.690;2023-05-10T13:37:25;15.73;;;10.75;;
74168;SDS011;62523;53.336;83.690;2023-05-10T13:42:27;16.17;;;9.97;;
74168;SDS011;62523;53.336;83.690;2023-05-10T13:47:29;26.05;;;12.40;;
74168;SDS011;62523;53.336;83.690;2023-05-10T13:52:32;21.33;;;11.38;;
74168;SDS011;62523;53.336;83.690;2023-05-10T13:57:34;15.65;;;11.07;;
74168;SDS011;62523;53.336;83.690;2023-05-10T14:02:37;32.45;;;12.75;;
74168;SDS011;62523;53.336;83.690;2023-05-10T14:07:39;26.52;;;13.25;;
74168;SDS011;62523;53.336;83.690;2023-05-10T14:12:41;19.87;;;11.33;;
74168;SDS011;62523;53.336;83.690;2023-05-10T14:17:43;19.02;;;12.55;;
74168;SDS011;62523;53.336;83.690;2023-05-10T14:22:45;13.80;;;10.63;;
74168;SDS011;62523;53.336;83.690;2023-05-10T14:27:47;23.27;;;10.57;;
74168;SDS011;62523;53.336;83.690;2023-05-10T14:32:49;30.00;;;10.23;;
74168;SDS011;62523;53.336;83.690;2023-05-10T14:37:51;25.95;;;16.40;;
74168;SDS011;62523;53.336;83.690;2023-05-10T14:42:54;35.70;;;15.52;;
74168;SDS011;62523;53.336;83.690;2023-05-10T14:47:56;27.38;;;15.60;;
74168;SDS011;62523;53.336;83.690;2023-05-10T14:52:58;26.63;;;14.70;;
74168;SDS011;62523;53.336;83.690;2023-05-10T14:58:04;28.58;;;12.52;;
74168;SDS011;62523;53.336;83.690;2023-05-10T15:03:06;17.13;;;11.82;;
74168;SDS011;62523;53.336;83.690;2023-05-10T15:08:09;11.38;;;10.07;;
74168;SDS011;62523;53.336;83.690;2023-05-10T15:13:13;25.40;;;10.75;;
74168;SDS011;62523;53.336;83.690;2023-05-10T15:18:15;13.98;;;10.18;;
74168;SDS011;62523;53.336;83.690;2023-05-10T15:23:17;16.67;;;8.10;;
74168;SDS011;62523;53.336;83.690;2023-05-10T15:28:19;20.70;;;12.27;;
74168;SDS011;62523;53.336;83.690;2023-05-10T15:33:22;19.02;;;12.38;;
74168;SDS011;62523;53.336;83.690;2023-05-10T15:38:24;24.42;;;11.75;;
74168;SDS011;62523;53.336;83.690;2023-05-10T15:43:26;51.45;;;14.75;;
74168;SDS011;62523;53.336;83.690;2023-05-10T15:48:28;19.97;;;11.77;;
74168;SDS011;62523;53.336;83.690;2023-05-10T15:53:32;23.23;;;8.23;;
74168;SDS011;62523;53.336;83.690;2023-05-10T15:58:34;18.83;;;8.85;;
74168;SDS011;62523;53.336;83.690;2023-05-10T16:03:36;11.07;;;7.05;;
74168;SDS011;62523;53.336;83.690;2023-05-10T16:08:39;8.25;;;4.63;;
74168;SDS011;62523;53.336;83.690;2023-05-10T16:13:41;8.60;;;5.88;;
74168;SDS011;62523;53.336;83.690;2023-05-10T16:18:43;17.33;;;5.10;;
74168;SDS011;62523;53.336;83.690;2023-05-10T16:23:45;26.27;;;4.87;;
74168;SDS011;62523;53.336;83.690;2023-05-10T16:28:47;9.30;;;4.93;;
74168;SDS011;62523;53.336;83.690;2023-05-10T16:33:49;10.60;;;5.05;;
74168;SDS011;62523;53.336;83.690;2023-05-10T16:38:51;8.90;;;5.80;;
74168;SDS011;62523;53.336;83.690;2023-05-10T16:43:53;14.98;;;5.63;;
74168;SDS011;62523;53.336;83.690;2023-05-10T16:48:58;9.50;;;5.88;;
74168;SDS011;62523;53.336;83.690;2023-05-10T16:54:00;17.13;;;6.50;;
74168;SDS011;62523;53.336;83.690;2023-05-10T16:59:02;15.15;;;6.82;;
74168;SDS011;62523;53.336;83.690;2023-05-10T17:04:04;18.23;;;7.10;;
74168;SDS011;62523;53.336;83.690;2023-05-10T17:09:06;15.60;;;8.27;;
74168;SDS011;62523;53.336;83.690;2023-05-10T17:14:08;14.82;;;8.10;;
74168;SDS011;62523;53.336;83.690;2023-05-10T17:19:10;29.27;;;8.00;;
74168;SDS011;62523;53.336;83.690;2023-05-10T17:24:12;26.30;;;9.07;;
74168;SDS011;62523;53.336;83.690;2023-05-10T17:29:14;21.63;;;8.90;;
74168;SDS011;62523;53.336;83.690;2023-05-10T17:34:17;19.67;;;7.70;;
74168;SDS011;62523;53.336;83.690;2023-05-10T17:39:19;19.33;;;8.45;;
74168;SDS011;62523;53.336;83.690;2023-05-10T17:44:21;12.05;;;6.80;;
74168;SDS011;62523;53.336;83.690;2023-05-10T17:49:25;9.93;;;6.78;;
74168;SDS011;62523;53.336;83.690;2023-05-10T17:54:29;15.48;;;7.55;;
74168;SDS011;62523;53.336;83.690;2023-05-10T17:59:31;21.50;;;7.05;;
74168;SDS011;62523;53.336;83.690;2023-05-10T18:04:33;17.25;;;8.00;;
74168;SDS011;62523;53.336;83.690;2023-05-10T18:09:35;11.75;;;6.07;;
74168;SDS011;62523;53.336;83.690;2023-05-10T18:14:37;21.42;;;10.07;;
74168;SDS011;62523;53.336;83.690;2023-05-10T18:19:40;12.77;;;8.07;;
74168;SDS011;62523;53.336;83.690;2023-05-10T18:24:42;14.65;;;8.63;;
74168;SDS011;62523;53.336;83.690;2023-05-10T18:29:45;15.43;;;7.57;;
74168;SDS011;62523;53.336;83.690;2023-05-10T18:34:50;19.85;;;8.70;;
74168;SDS011;62523;53.336;83.690;2023-05-10T18:39:53;12.73;;;7.25;;
74168;SDS011;62523;53.336;83.690;2023-05-10T18:44:55;19.73;;;9.63;;
74168;SDS011;62523;53.336;83.690;2023-05-10T18:49:57;22.23;;;8.07;;
74168;SDS011;62523;53.336;83.690;2023-05-10T18:54:59;22.67;;;10.15;;
74168;SDS011;62523;53.336;83.690;2023-05-10T19:00:02;20.05;;;10.88;;
74168;SDS011;62523;53.336;83.690;2023-05-10T19:05:06;35.17;;;11.80;;
74168;SDS011;62523;53.336;83.690;2023-05-10T19:10:12;22.40;;;12.63;;
74168;SDS011;62523;53.336;83.690;2023-05-10T19:15:23;22.89;;;11.73;;
74168;SDS011;62523;53.336;83.690;2023-05-10T19:20:25;17.60;;;12.68;;
74168;SDS011;62523;53.336;83.690;2023-05-10T19:25:28;19.90;;;11.40;;
74168;SDS011;62523;53.336;83.690;2023-05-10T19:30:30;24.48;;;14.20;;
74168;SDS011;62523;53.336;83.690;2023-05-10T19:35:33;23.40;;;15.50;;
74168;SDS011;62523;53.336;83.690;2023-05-10T19:40:35;19.42;;;12.63;;
74168;SDS011;62523;53.336;83.690;2023-05-10T19:45:38;29.50;;;10.80;;
74168;SDS011;62523;53.336;83.690;2023-05-10T19:50:40;35.08;;;13.18;;
74168;SDS011;62523;53.336;83.690;2023-05-10T19:55:42;26.55;;;12.68;;
74168;SDS011;62523;53.336;83.690;2023-05-10T20:00:45;16.27;;;11.45;;
74168;SDS011;62523;53.336;83.690;2023-05-10T20:05:47;21.75;;;13.57;;
74168;SDS011;62523;53.336;83.690;2023-05-10T20:10:49;23.73;;;13.85;;
74168;SDS011;62523;53.336;83.690;2023-05-10T20:15:55;30.48;;;12.77;;
74168;SDS011;62523;53.336;83.690;2023-05-10T20:20:59;27.35;;;12.88;;
74168;SDS011;62523;53.336;83.690;2023-05-10T20:26:01;20.90;;;12.82;;
74168;SDS011;62523;53.336;83.690;2023-05-10T20:31:04;23.73;;;13.05;;
74168;SDS011;62523;53.336;83.690;2023-05-10T20:36:06;21.55;;;15.82;;
74168;SDS011;62523;53.336;83.690;2023-05-10T20:41:10;30.95;;;13.60;;
74168;SDS011;62523;53.336;83.690;2023-05-10T20:46:12;28.35;;;13.45;;
74168;SDS011;62523;53.336;83.690;2023-05-10T20:51:14;20.88;;;13.82;;
74168;SDS011;62523;53.336;83.690;2023-05-10T20:56:16;23.83;;;14.93;;
74168;SDS011;62523;53.336;83.690;2023-05-10T21:01:19;36.60;;;13.38;;
74168;SDS011;62523;53.336;83.690;2023-05-10T21:06:21;25.35;;;14.10;;
74168;SDS011;62523;53.336;83.690;2023-05-10T21:11:24;23.63;;;13.95;;
74168;SDS011;62523;53.336;83.690;2023-05-10T21:16:26;24.70;;;14.85;;
74168;SDS011;62523;53.336;83.690;2023-05-10T21:21:29;23.00;;;13.05;;
74168;SDS011;62523;53.336;83.690;2023-05-10T21:26:31;22.30;;;13.93;;
74168;SDS011;62523;53.336;83.690;2023-05-10T21:31:33;25.17;;;14.27;;
74168;SDS011;62523;53.336;83.690;2023-05-10T21:36:36;23.48;;;13.75;;
74168;SDS011;62523;53.336;83.690;2023-05-10T21:41:38;26.25;;;13.45;;
74168;SDS011;62523;53.336;83.690;2023-05-10T21:46:41;19.35;;;12.55;;
74168;SDS011;62523;53.336;83.690;2023-05-10T21:51:43;24.55;;;13.20;;
74168;SDS011;62523;53.336;83.690;2023-05-10T21:56:45;20.67;;;13.75;;
74168;SDS011;62523;53.336;83.690;2023-05-10T22:01:48;22.17;;;13.73;;
74168;SDS011;62523;53.336;83.690;2023-05-10T22:06:50;33.75;;;14.60;;
74168;SDS011;62523;53.336;83.690;2023-05-10T22:11:52;18.27;;;12.52;;
74168;SDS011;62523;53.336;83.690;2023-05-10T22:16:54;30.70;;;16.58;;
74168;SDS011;62523;53.336;83.690;2023-05-10T22:21:58;20.15;;;14.68;;
74168;SDS011;62523;53.336;83.690;2023-05-10T22:27:00;25.23;;;13.80;;
74168;SDS011;62523;53.336;83.690;2023-05-10T22:32:03;23.38;;;14.15;;
74168;SDS011;62523;53.336;83.690;2023-05-10T22:37:08;32.03;;;15.93;;
74168;SDS011;62523;53.336;83.690;2023-05-10T22:42:11;26.92;;;15.40;;
74168;SDS011;62523;53.336;83.690;2023-05-10T22:47:13;34.33;;;17.08;;
74168;SDS011;62523;53.336;83.690;2023-05-10T22:52:16;22.03;;;12.73;;
74168;SDS011;62523;53.336;83.690;2023-05-10T22:57:18;28.13;;;15.10;;
74168;SDS011;62523;53.336;83.690;2023-05-10T23:02:20;26.17;;;14.93;;
74168;SDS011;62523;53.336;83.690;2023-05-10T23:07:22;19.33;;;14.27;;
74168;SDS011;62523;53.336;83.690;2023-05-10T23:12:24;27.75;;;17.65;;
74168;SDS011;62523;53.336;83.690;2023-05-10T23:17:26;40.63;;;15.68;;
74168;SDS011;62523;53.336;83.690;2023-05-10T23:22:29;24.65;;;15.30;;
74168;SDS011;62523;53.336;83.690;2023-05-10T23:27:31;30.27;;;16.45;;
74168;SDS011;62523;53.336;83.690;2023-05-10T23:32:33;25.67;;;15.60;;
74168;SDS011;62523;53.336;83.690;2023-05-10T23:37:35;22.70;;;16.17;;
74168;SDS011;62523;53.336;83.690;2023-05-10T23:42:37;26.25;;;14.80;;
74168;SDS011;62523;53.336;83.690;2023-05-10T23:47:39;35.90;;;16.25;;
74168;SDS011;62523;53.336;83.690;2023-05-10T23:52:42;26.80;;;16.40;;
74168;SDS011;62523;53.336;83.690;2023-05-10T23:57:44;26.65;;;16.25;;
